SACO/COR METAR and TAF weather

Enter ICAO airport designator
Station Type Date Time Source
SACO METAR 2021/05/12 01:00 UTC NOAA

SACO 120100Z 01008KT CAVOK 04/01 Q1023 NOSIG


Station Type Date Time Source
SACO Decoded METAR 2021/05/12 01:00 UTC NOAA

Cordoba Aerodrome, Argentina (SACO) 31-19S 064-13W 474M
May 11, 2021 - 09:00 PM EDT / 2021.05.12 0100 UTC
Wind: from the N (010 degrees) at 9 MPH (8 KT):0
Visibility: greater than 7 mile(s):0
Temperature: 39 F (4 C)
Dew Point: 33 F (1 C)
Relative Humidity: 80%
Pressure (altimeter): 30.21 in. Hg (1023 hPa)
ob: SACO 120100Z 01008KT CAVOK 04/01 Q1023 NOSIG
cycle: 1

Station Type Date Time Source
SACO TAF 2021/05/12 00:00 UTC NOAA

TAF SACO 112300Z 1200/1224 34005KT CAVOK TX23/1218Z TN07/1210Z
BECMG 1215/1218 02015KT

Example: see airport list